sensor_id;sensor_type;location;lat;lon;timestamp;pressure;altitude;pressure_sealevel;temperature;humidity
76553;BME280;65395;53.168;18.156;2023-02-15T00:01:08;102810.02;;;0.24;81.83
76553;BME280;65395;53.168;18.156;2023-02-15T00:03:35;102809.52;;;0.31;81.97
76553;BME280;65395;53.168;18.156;2023-02-15T00:06:03;102807.86;;;0.36;81.92
76553;BME280;65395;53.168;18.156;2023-02-15T00:08:30;102807.50;;;0.37;81.89
76553;BME280;65395;53.168;18.156;2023-02-15T00:11:08;102805.96;;;0.42;81.84
76553;BME280;65395;53.168;18.156;2023-02-15T00:13:35;102809.98;;;0.51;81.94
76553;BME280;65395;53.168;18.156;2023-02-15T00:16:03;102807.94;;;0.58;81.90
76553;BME280;65395;53.168;18.156;2023-02-15T00:18:30;102808.38;;;0.65;81.75
76553;BME280;65395;53.168;18.156;2023-02-15T00:20:57;102806.11;;;0.70;81.73
76553;BME280;65395;53.168;18.156;2023-02-15T00:23:26;102806.05;;;0.72;81.48
76553;BME280;65395;53.168;18.156;2023-02-15T00:26:03;102801.69;;;0.72;81.62
76553;BME280;65395;53.168;18.156;2023-02-15T00:28:30;102804.10;;;0.73;81.52
76553;BME280;65395;53.168;18.156;2023-02-15T00:31:05;102804.38;;;0.73;81.70
76553;BME280;65395;53.168;18.156;2023-02-15T00:33:34;102805.13;;;0.74;81.61
76553;BME280;65395;53.168;18.156;2023-02-15T00:36:03;102798.86;;;0.80;81.60
76553;BME280;65395;53.168;18.156;2023-02-15T00:38:31;102798.34;;;0.86;81.65
76553;BME280;65395;53.168;18.156;2023-02-15T00:41:00;102797.82;;;0.91;81.57
76553;BME280;65395;53.168;18.156;2023-02-15T00:43:28;102795.89;;;0.89;81.59
76553;BME280;65395;53.168;18.156;2023-02-15T00:45:55;102790.77;;;0.91;81.58
76553;BME280;65395;53.168;18.156;2023-02-15T00:48:22;102791.72;;;0.96;81.54
76553;BME280;65395;53.168;18.156;2023-02-15T00:50:52;102795.07;;;1.00;81.63
76553;BME280;65395;53.168;18.156;2023-02-15T00:53:20;102795.02;;;1.02;81.55
76553;BME280;65395;53.168;18.156;2023-02-15T00:55:47;102793.63;;;1.02;81.57
76553;BME280;65395;53.168;18.156;2023-02-15T00:58:15;102790.16;;;1.01;81.59
76553;BME280;65395;53.168;18.156;2023-02-15T01:00:44;102791.11;;;1.00;81.42
76553;BME280;65395;53.168;18.156;2023-02-15T01:03:13;102787.16;;;0.98;81.52
76553;BME280;65395;53.168;18.156;2023-02-15T01:05:40;102785.31;;;0.97;81.72
76553;BME280;65395;53.168;18.156;2023-02-15T01:08:07;102781.45;;;0.98;81.49
76553;BME280;65395;53.168;18.156;2023-02-15T01:10:35;102781.08;;;1.01;81.51
76553;BME280;65395;53.168;18.156;2023-02-15T01:13:02;102779.42;;;1.07;81.55
76553;BME280;65395;53.168;18.156;2023-02-15T01:15:29;102782.97;;;1.10;81.37
76553;BME280;65395;53.168;18.156;2023-02-15T01:17:56;102784.79;;;1.11;81.51
76553;BME280;65395;53.168;18.156;2023-02-15T01:20:25;102786.20;;;1.12;81.43
76553;BME280;65395;53.168;18.156;2023-02-15T01:22:53;102784.98;;;1.11;81.57
76553;BME280;65395;53.168;18.156;2023-02-15T01:25:22;102787.73;;;1.08;81.62
76553;BME280;65395;53.168;18.156;2023-02-15T01:27:50;102781.68;;;1.03;81.65
76553;BME280;65395;53.168;18.156;2023-02-15T01:30:17;102778.94;;;1.00;81.72
76553;BME280;65395;53.168;18.156;2023-02-15T01:32:44;102776.48;;;0.99;81.88
76553;BME280;65395;53.168;18.156;2023-02-15T01:35:10;102769.38;;;0.98;81.83
76553;BME280;65395;53.168;18.156;2023-02-15T01:37:37;102768.33;;;0.98;81.87
76553;BME280;65395;53.168;18.156;2023-02-15T01:40:07;102764.60;;;1.00;82.07
76553;BME280;65395;53.168;18.156;2023-02-15T01:42:35;102758.61;;;1.02;81.97
76553;BME280;65395;53.168;18.156;2023-02-15T01:45:04;102754.71;;;1.03;82.05
76553;BME280;65395;53.168;18.156;2023-02-15T01:47:45;102752.12;;;1.02;81.91
76553;BME280;65395;53.168;18.156;2023-02-15T01:53:09;102748.20;;;1.01;82.04
76553;BME280;65395;53.168;18.156;2023-02-15T01:55:41;102744.48;;;1.02;82.14
76553;BME280;65395;53.168;18.156;2023-02-15T01:58:09;102746.46;;;1.03;82.19
76553;BME280;65395;53.168;18.156;2023-02-15T02:00:37;102746.07;;;1.03;82.27
76553;BME280;65395;53.168;18.156;2023-02-15T02:03:04;102743.48;;;1.03;82.22
76553;BME280;65395;53.168;18.156;2023-02-15T02:05:32;102738.23;;;1.02;82.28
76553;BME280;65395;53.168;18.156;2023-02-15T02:08:01;102737.47;;;1.03;82.26
76553;BME280;65395;53.168;18.156;2023-02-15T02:10:28;102735.69;;;1.03;82.20
76553;BME280;65395;53.168;18.156;2023-02-15T02:13:01;102733.55;;;1.02;82.26
76553;BME280;65395;53.168;18.156;2023-02-15T02:15:44;102735.65;;;1.03;82.32
76553;BME280;65395;53.168;18.156;2023-02-15T02:18:39;102734.80;;;1.05;82.24
76553;BME280;65395;53.168;18.156;2023-02-15T02:30:06;102728.61;;;1.13;82.31
76553;BME280;65395;53.168;18.156;2023-02-15T02:35:45;102727.64;;;1.17;82.19
76553;BME280;65395;53.168;18.156;2023-02-15T02:38:25;102729.39;;;1.16;82.41
76553;BME280;65395;53.168;18.156;2023-02-15T02:41:07;102729.79;;;1.14;82.29
76553;BME280;65395;53.168;18.156;2023-02-15T02:43:43;102732.09;;;1.13;82.27
76553;BME280;65395;53.168;18.156;2023-02-15T02:46:20;102735.38;;;1.12;82.49
76553;BME280;65395;53.168;18.156;2023-02-15T02:48:48;102729.91;;;1.10;82.34
76553;BME280;65395;53.168;18.156;2023-02-15T02:51:15;102730.56;;;1.09;82.57
76553;BME280;65395;53.168;18.156;2023-02-15T02:53:51;102733.77;;;1.09;82.38
76553;BME280;65395;53.168;18.156;2023-02-15T02:56:32;102732.55;;;1.11;82.39
76553;BME280;65395;53.168;18.156;2023-02-15T02:59:07;102728.10;;;1.12;82.32
76553;BME280;65395;53.168;18.156;2023-02-15T03:01:42;102723.94;;;1.13;82.51
76553;BME280;65395;53.168;18.156;2023-02-15T03:04:16;102723.45;;;1.19;82.43
76553;BME280;65395;53.168;18.156;2023-02-15T03:06:52;102715.07;;;1.24;82.36
76553;BME280;65395;53.168;18.156;2023-02-15T03:09:35;102714.77;;;1.27;82.18
76553;BME280;65395;53.168;18.156;2023-02-15T03:12:16;102715.98;;;1.28;82.27
76553;BME280;65395;53.168;18.156;2023-02-15T03:14:50;102713.41;;;1.28;82.14
76553;BME280;65395;53.168;18.156;2023-02-15T03:17:20;102710.30;;;1.28;82.27
76553;BME280;65395;53.168;18.156;2023-02-15T03:19:51;102709.21;;;1.27;82.14
76553;BME280;65395;53.168;18.156;2023-02-15T03:22:26;102707.87;;;1.27;82.20
76553;BME280;65395;53.168;18.156;2023-02-15T03:25:06;102706.52;;;1.28;82.16
76553;BME280;65395;53.168;18.156;2023-02-15T03:27:41;102701.06;;;1.30;82.07
76553;BME280;65395;53.168;18.156;2023-02-15T03:30:11;102702.57;;;1.32;81.83
76553;BME280;65395;53.168;18.156;2023-02-15T03:32:41;102702.21;;;1.29;81.85
76553;BME280;65395;53.168;18.156;2023-02-15T03:35:10;102704.05;;;1.27;81.86
76553;BME280;65395;53.168;18.156;2023-02-15T03:37:44;102703.25;;;1.25;81.89
76553;BME280;65395;53.168;18.156;2023-02-15T03:40:25;102704.41;;;1.25;82.03
76553;BME280;65395;53.168;18.156;2023-02-15T03:43:20;102708.02;;;1.25;81.92
76553;BME280;65395;53.168;18.156;2023-02-15T03:45:52;102707.27;;;1.24;81.83
76553;BME280;65395;53.168;18.156;2023-02-15T03:48:25;102703.98;;;1.23;81.96
76553;BME280;65395;53.168;18.156;2023-02-15T03:50:57;102699.30;;;1.21;81.94
76553;BME280;65395;53.168;18.156;2023-02-15T03:53:35;102699.45;;;1.20;82.02
76553;BME280;65395;53.168;18.156;2023-02-15T03:56:02;102701.66;;;1.19;81.96
76553;BME280;65395;53.168;18.156;2023-02-15T03:58:28;102705.31;;;1.17;81.90
76553;BME280;65395;53.168;18.156;2023-02-15T04:01:15;102704.81;;;1.17;81.99
76553;BME280;65395;53.168;18.156;2023-02-15T04:03:59;102702.59;;;1.20;81.89
76553;BME280;65395;53.168;18.156;2023-02-15T04:06:27;102704.75;;;1.24;81.85
76553;BME280;65395;53.168;18.156;2023-02-15T04:08:54;102703.17;;;1.25;81.84
76553;BME280;65395;53.168;18.156;2023-02-15T04:11:31;102704.69;;;1.23;81.56
76553;BME280;65395;53.168;18.156;2023-02-15T04:13:58;102698.98;;;1.21;81.76
76553;BME280;65395;53.168;18.156;2023-02-15T04:16:25;102703.15;;;1.20;81.70
76553;BME280;65395;53.168;18.156;2023-02-15T04:18:52;102703.23;;;1.17;81.52
76553;BME280;65395;53.168;18.156;2023-02-15T04:21:29;102696.73;;;1.15;81.68
76553;BME280;65395;53.168;18.156;2023-02-15T04:24:07;102690.13;;;1.12;81.68
76553;BME280;65395;53.168;18.156;2023-02-15T04:26:44;102694.23;;;1.10;81.60
76553;BME280;65395;53.168;18.156;2023-02-15T04:29:11;102692.88;;;1.06;81.73
76553;BME280;65395;53.168;18.156;2023-02-15T04:31:37;102699.00;;;1.04;81.70
76553;BME280;65395;53.168;18.156;2023-02-15T04:34:04;102693.39;;;1.04;81.83
76553;BME280;65395;53.168;18.156;2023-02-15T04:36:31;102698.45;;;1.03;81.76
76553;BME280;65395;53.168;18.156;2023-02-15T04:38:58;102692.89;;;1.05;81.93
76553;BME280;65395;53.168;18.156;2023-02-15T04:41:25;102691.98;;;1.05;81.79
76553;BME280;65395;53.168;18.156;2023-02-15T04:43:52;102690.58;;;1.05;81.98
76553;BME280;65395;53.168;18.156;2023-02-15T04:46:19;102687.10;;;1.05;81.86
76553;BME280;65395;53.168;18.156;2023-02-15T04:48:46;102685.80;;;1.06;81.86
76553;BME280;65395;53.168;18.156;2023-02-15T04:51:12;102682.10;;;1.07;81.80
76553;BME280;65395;53.168;18.156;2023-02-15T04:53:39;102678.36;;;1.09;81.80
76553;BME280;65395;53.168;18.156;2023-02-15T04:56:06;102676.52;;;1.10;81.84
76553;BME280;65395;53.168;18.156;2023-02-15T04:58:33;102678.64;;;1.11;81.85
76553;BME280;65395;53.168;18.156;2023-02-15T05:00:59;102677.53;;;1.12;81.73
76553;BME280;65395;53.168;18.156;2023-02-15T05:03:26;102672.71;;;1.11;81.87
76553;BME280;65395;53.168;18.156;2023-02-15T05:05:53;102676.15;;;1.13;81.95
76553;BME280;65395;53.168;18.156;2023-02-15T05:08:20;102667.95;;;1.15;81.97
76553;BME280;65395;53.168;18.156;2023-02-15T05:10:48;102671.54;;;1.17;81.79
76553;BME280;65395;53.168;18.156;2023-02-15T05:13:15;102673.69;;;1.17;81.73
76553;BME280;65395;53.168;18.156;2023-02-15T05:15:47;102677.32;;;1.14;81.81
76553;BME280;65395;53.168;18.156;2023-02-15T05:18:16;102677.04;;;1.16;81.89
76553;BME280;65395;53.168;18.156;2023-02-15T05:20:42;102668.30;;;1.17;81.75
76553;BME280;65395;53.168;18.156;2023-02-15T05:23:09;102676.30;;;1.17;81.97
76553;BME280;65395;53.168;18.156;2023-02-15T05:25:36;102676.82;;;1.15;81.75
76553;BME280;65395;53.168;18.156;2023-02-15T05:28:13;102676.95;;;1.13;81.85
76553;BME280;65395;53.168;18.156;2023-02-15T05:30:49;102677.19;;;1.11;81.84
76553;BME280;65395;53.168;18.156;2023-02-15T05:33:17;102676.27;;;1.09;81.91
76553;BME280;65395;53.168;18.156;2023-02-15T05:35:44;102676.86;;;1.09;81.95
76553;BME280;65395;53.168;18.156;2023-02-15T05:38:10;102679.30;;;1.09;81.98
76553;BME280;65395;53.168;18.156;2023-02-15T05:40:37;102677.06;;;1.09;81.90
76553;BME280;65395;53.168;18.156;2023-02-15T05:43:04;102680.02;;;1.08;81.89
76553;BME280;65395;53.168;18.156;2023-02-15T05:45:31;102681.10;;;1.11;81.87
76553;BME280;65395;53.168;18.156;2023-02-15T05:47:58;102679.63;;;1.13;81.89
76553;BME280;65395;53.168;18.156;2023-02-15T05:50:25;102679.08;;;1.14;81.90
76553;BME280;65395;53.168;18.156;2023-02-15T05:52:52;102679.75;;;1.15;81.84
76553;BME280;65395;53.168;18.156;2023-02-15T05:55:19;102679.58;;;1.20;81.89
76553;BME280;65395;53.168;18.156;2023-02-15T05:57:46;102673.98;;;1.23;81.85
76553;BME280;65395;53.168;18.156;2023-02-15T06:00:13;102671.26;;;1.26;81.75
76553;BME280;65395;53.168;18.156;2023-02-15T06:02:40;102673.14;;;1.24;81.83
76553;BME280;65395;53.168;18.156;2023-02-15T06:05:07;102679.38;;;1.20;81.78
76553;BME280;65395;53.168;18.156;2023-02-15T06:07:34;102679.93;;;1.20;81.77
76553;BME280;65395;53.168;18.156;2023-02-15T06:10:01;102674.39;;;1.21;81.78
76553;BME280;65395;53.168;18.156;2023-02-15T06:12:28;102677.94;;;1.22;81.65
76553;BME280;65395;53.168;18.156;2023-02-15T06:14:57;102675.60;;;1.23;81.85
76553;BME280;65395;53.168;18.156;2023-02-15T06:17:28;102673.56;;;1.22;81.65
76553;BME280;65395;53.168;18.156;2023-02-15T06:19:55;102672.63;;;1.22;81.71
76553;BME280;65395;53.168;18.156;2023-02-15T06:22:22;102672.83;;;1.20;81.65
76553;BME280;65395;53.168;18.156;2023-02-15T06:24:49;102679.36;;;1.17;81.62
76553;BME280;65395;53.168;18.156;2023-02-15T06:27:15;102680.56;;;1.16;81.71
76553;BME280;65395;53.168;18.156;2023-02-15T06:29:42;102678.10;;;1.18;81.76
76553;BME280;65395;53.168;18.156;2023-02-15T06:32:09;102683.63;;;1.21;81.91
76553;BME280;65395;53.168;18.156;2023-02-15T06:34:36;102681.84;;;1.23;81.67
76553;BME280;65395;53.168;18.156;2023-02-15T06:37:02;102674.95;;;1.22;81.84
76553;BME280;65395;53.168;18.156;2023-02-15T06:39:29;102676.23;;;1.22;81.64
76553;BME280;65395;53.168;18.156;2023-02-15T06:41:57;102679.31;;;1.22;81.93
76553;BME280;65395;53.168;18.156;2023-02-15T06:44:24;102675.15;;;1.22;81.87
76553;BME280;65395;53.168;18.156;2023-02-15T06:46:51;102672.30;;;1.23;81.89
76553;BME280;65395;53.168;18.156;2023-02-15T06:49:17;102671.18;;;1.26;81.81
76553;BME280;65395;53.168;18.156;2023-02-15T06:51:44;102674.98;;;1.29;81.86
76553;BME280;65395;53.168;18.156;2023-02-15T06:54:10;102674.16;;;1.32;81.63
76553;BME280;65395;53.168;18.156;2023-02-15T06:56:37;102677.02;;;1.36;81.53
76553;BME280;65395;53.168;18.156;2023-02-15T06:59:05;102674.08;;;1.42;81.62
76553;BME280;65395;53.168;18.156;2023-02-15T07:01:31;102673.64;;;1.47;81.43
76553;BME280;65395;53.168;18.156;2023-02-15T07:03:58;102671.42;;;1.50;81.43
76553;BME280;65395;53.168;18.156;2023-02-15T07:06:25;102667.00;;;1.56;81.48
76553;BME280;65395;53.168;18.156;2023-02-15T07:08:51;102664.96;;;1.59;81.40
76553;BME280;65395;53.168;18.156;2023-02-15T07:11:18;102665.33;;;1.62;81.20
76553;BME280;65395;53.168;18.156;2023-02-15T07:13:55;102661.45;;;1.61;81.23
76553;BME280;65395;53.168;18.156;2023-02-15T07:16:21;102654.25;;;1.62;81.22
76553;BME280;65395;53.168;18.156;2023-02-15T07:18:48;102650.44;;;1.63;81.45
76553;BME280;65395;53.168;18.156;2023-02-15T07:21:15;102644.27;;;1.64;81.37
76553;BME280;65395;53.168;18.156;2023-02-15T07:23:42;102640.79;;;1.68;81.42
76553;BME280;65395;53.168;18.156;2023-02-15T07:26:08;102639.20;;;1.71;81.41
76553;BME280;65395;53.168;18.156;2023-02-15T07:28:35;102643.21;;;1.75;81.31
76553;BME280;65395;53.168;18.156;2023-02-15T07:31:03;102643.52;;;1.81;81.32
76553;BME280;65395;53.168;18.156;2023-02-15T07:33:31;102643.48;;;1.87;81.21
76553;BME280;65395;53.168;18.156;2023-02-15T07:36:00;102645.74;;;1.96;81.08
76553;BME280;65395;53.168;18.156;2023-02-15T07:38:33;102644.13;;;2.02;80.89
76553;BME280;65395;53.168;18.156;2023-02-15T07:41:01;102645.07;;;2.07;81.01
76553;BME280;65395;53.168;18.156;2023-02-15T07:43:29;102646.92;;;2.13;80.85
76553;BME280;65395;53.168;18.156;2023-02-15T07:46:00;102646.34;;;2.18;80.58
76553;BME280;65395;53.168;18.156;2023-02-15T07:48:27;102641.24;;;2.20;80.46
76553;BME280;65395;53.168;18.156;2023-02-15T07:50:58;102635.96;;;2.24;80.44
76553;BME280;65395;53.168;18.156;2023-02-15T07:53:25;102632.98;;;2.27;80.44
76553;BME280;65395;53.168;18.156;2023-02-15T07:55:52;102633.88;;;2.29;80.39
76553;BME280;65395;53.168;18.156;2023-02-15T07:58:28;102629.96;;;2.34;80.37
76553;BME280;65395;53.168;18.156;2023-02-15T08:01:06;102628.92;;;2.41;80.49
76553;BME280;65395;53.168;18.156;2023-02-15T08:03:33;102626.13;;;2.48;80.28
76553;BME280;65395;53.168;18.156;2023-02-15T08:06:00;102619.80;;;2.56;80.27
76553;BME280;65395;53.168;18.156;2023-02-15T08:08:26;102615.48;;;2.63;80.12
76553;BME280;65395;53.168;18.156;2023-02-15T08:11:05;102613.09;;;2.69;79.98
76553;BME280;65395;53.168;18.156;2023-02-15T08:13:45;102606.94;;;2.74;79.91
76553;BME280;65395;53.168;18.156;2023-02-15T08:16:30;102603.16;;;2.81;79.77
76553;BME280;65395;53.168;18.156;2023-02-15T08:18:59;102594.20;;;2.86;79.72
76553;BME280;65395;53.168;18.156;2023-02-15T08:21:28;102596.41;;;2.92;79.74
76553;BME280;65395;53.168;18.156;2023-02-15T08:23:56;102593.04;;;3.00;79.78
76553;BME280;65395;53.168;18.156;2023-02-15T08:26:23;102591.27;;;3.04;79.66
76553;BME280;65395;53.168;18.156;2023-02-15T08:28:51;102590.96;;;3.11;79.77
76553;BME280;65395;53.168;18.156;2023-02-15T08:31:19;102588.92;;;3.20;79.60
76553;BME280;65395;53.168;18.156;2023-02-15T08:33:48;102587.38;;;3.29;79.33
76553;BME280;65395;53.168;18.156;2023-02-15T08:36:17;102589.60;;;3.36;79.34
76553;BME280;65395;53.168;18.156;2023-02-15T08:38:45;102586.09;;;3.44;79.19
76553;BME280;65395;53.168;18.156;2023-02-15T08:41:23;102584.77;;;3.52;79.07
76553;BME280;65395;53.168;18.156;2023-02-15T08:43:53;102570.82;;;3.52;78.95
76553;BME280;65395;53.168;18.156;2023-02-15T08:46:22;102582.58;;;3.65;78.94
76553;BME280;65395;53.168;18.156;2023-02-15T08:48:50;102581.23;;;3.71;78.69
76553;BME280;65395;53.168;18.156;2023-02-15T08:51:26;102574.33;;;3.77;78.73
76553;BME280;65395;53.168;18.156;2023-02-15T08:53:56;102568.07;;;3.82;78.65
76553;BME280;65395;53.168;18.156;2023-02-15T08:56:27;102565.34;;;3.86;78.45
76553;BME280;65395;53.168;18.156;2023-02-15T08:58:55;102563.77;;;3.90;78.56
76553;BME280;65395;53.168;18.156;2023-02-15T09:01:24;102559.82;;;3.95;78.31
76553;BME280;65395;53.168;18.156;2023-02-15T09:03:56;102558.42;;;4.01;78.38
76553;BME280;65395;53.168;18.156;2023-02-15T09:06:24;102561.40;;;4.10;78.10
76553;BME280;65395;53.168;18.156;2023-02-15T09:08:51;102555.69;;;4.17;77.88
76553;BME280;65395;53.168;18.156;2023-02-15T09:11:21;102560.20;;;4.23;77.94
76553;BME280;65395;53.168;18.156;2023-02-15T09:13:53;102559.30;;;4.33;77.86
76553;BME280;65395;53.168;18.156;2023-02-15T09:16:21;102555.91;;;4.40;77.54
76553;BME280;65395;53.168;18.156;2023-02-15T09:18:48;102556.69;;;4.47;77.49
76553;BME280;65395;53.168;18.156;2023-02-15T09:21:18;102556.45;;;4.54;77.40
76553;BME280;65395;53.168;18.156;2023-02-15T09:23:47;102555.46;;;4.62;77.33
76553;BME280;65395;53.168;18.156;2023-02-15T09:26:19;102550.77;;;4.70;77.09
76553;BME280;65395;53.168;18.156;2023-02-15T09:28:47;102550.34;;;4.79;77.03
76553;BME280;65395;53.168;18.156;2023-02-15T09:31:18;102544.31;;;4.83;76.89
76553;BME280;65395;53.168;18.156;2023-02-15T09:33:47;102545.27;;;4.92;76.83
76553;BME280;65395;53.168;18.156;2023-02-15T09:36:21;102543.27;;;5.00;76.64
76553;BME280;65395;53.168;18.156;2023-02-15T09:38:58;102543.20;;;5.06;76.31
76553;BME280;65395;53.168;18.156;2023-02-15T09:41:42;102543.27;;;5.13;76.33
76553;BME280;65395;53.168;18.156;2023-02-15T09:44:49;102544.54;;;5.24;75.91
76553;BME280;65395;53.168;18.156;2023-02-15T09:53:16;102529.27;;;5.38;74.80
76553;BME280;65395;53.168;18.156;2023-02-15T09:58:57;102524.80;;;5.41;74.65
76553;BME280;65395;53.168;18.156;2023-02-15T10:01:42;102521.90;;;5.44;74.48
76553;BME280;65395;53.168;18.156;2023-02-15T10:04:40;102520.33;;;5.42;74.15
76553;BME280;65395;53.168;18.156;2023-02-15T10:10:22;102511.59;;;5.34;74.21
76553;BME280;65395;53.168;18.156;2023-02-15T10:13:04;102509.70;;;5.31;74.17
76553;BME280;65395;53.168;18.156;2023-02-15T10:15:49;102504.80;;;5.27;74.10
76553;BME280;65395;53.168;18.156;2023-02-15T10:18:43;102502.35;;;5.24;73.81
76553;BME280;65395;53.168;18.156;2023-02-15T10:21:30;102506.34;;;5.19;73.80
76553;BME280;65395;53.168;18.156;2023-02-15T10:24:20;102503.08;;;5.18;73.95
76553;BME280;65395;53.168;18.156;2023-02-15T10:26:52;102503.25;;;5.16;73.44
76553;BME280;65395;53.168;18.156;2023-02-15T10:29:36;102497.54;;;5.12;73.45
76553;BME280;65395;53.168;18.156;2023-02-15T10:32:26;102499.92;;;5.08;73.12
76553;BME280;65395;53.168;18.156;2023-02-15T10:37:53;102500.37;;;5.06;73.07
76553;BME280;65395;53.168;18.156;2023-02-15T10:40:39;102497.13;;;5.02;73.41
76553;BME280;65395;53.168;18.156;2023-02-15T10:46:25;102486.54;;;5.05;73.45
76553;BME280;65395;53.168;18.156;2023-02-15T10:55:07;102490.52;;;4.98;72.75
76553;BME280;65395;53.168;18.156;2023-02-15T11:00:35;102482.44;;;5.00;72.89
76553;BME280;65395;53.168;18.156;2023-02-15T11:03:29;102480.66;;;5.04;72.90
76553;BME280;65395;53.168;18.156;2023-02-15T11:06:06;102477.80;;;5.10;72.30
76553;BME280;65395;53.168;18.156;2023-02-15T11:08:40;102475.95;;;5.12;72.58
76553;BME280;65395;53.168;18.156;2023-02-15T11:11:15;102475.21;;;5.19;72.63
76553;BME280;65395;53.168;18.156;2023-02-15T11:13:46;102470.02;;;5.22;71.99
76553;BME280;65395;53.168;18.156;2023-02-15T11:16:18;102467.64;;;5.22;71.84
76553;BME280;65395;53.168;18.156;2023-02-15T11:18:53;102463.50;;;5.21;72.02
76553;BME280;65395;53.168;18.156;2023-02-15T11:21:31;102463.17;;;5.21;71.96
76553;BME280;65395;53.168;18.156;2023-02-15T11:23:59;102460.80;;;5.24;72.09
76553;BME280;65395;53.168;18.156;2023-02-15T11:26:36;102454.80;;;5.27;71.97
76553;BME280;65395;53.168;18.156;2023-02-15T11:29:22;102451.48;;;5.33;72.06
76553;BME280;65395;53.168;18.156;2023-02-15T11:31:56;102443.63;;;5.41;71.82
76553;BME280;65395;53.168;18.156;2023-02-15T11:45:58;102433.57;;;6.18;69.90
76553;BME280;65395;53.168;18.156;2023-02-15T11:48:25;102427.50;;;6.24;69.81
76553;BME280;65395;53.168;18.156;2023-02-15T11:50:52;102425.80;;;6.18;70.00
76553;BME280;65395;53.168;18.156;2023-02-15T11:53:21;102425.38;;;6.15;69.79
76553;BME280;65395;53.168;18.156;2023-02-15T11:55:51;102426.60;;;6.08;69.69
76553;BME280;65395;53.168;18.156;2023-02-15T12:01:11;102420.77;;;5.99;70.12
76553;BME280;65395;53.168;18.156;2023-02-15T12:03:49;102417.59;;;5.93;70.15
76553;BME280;65395;53.168;18.156;2023-02-15T12:06:23;102419.88;;;5.96;70.11
76553;BME280;65395;53.168;18.156;2023-02-15T12:08:55;102420.44;;;5.96;70.05
76553;BME280;65395;53.168;18.156;2023-02-15T12:11:30;102415.48;;;5.96;69.82
76553;BME280;65395;53.168;18.156;2023-02-15T12:14:03;102413.36;;;5.95;69.85
76553;BME280;65395;53.168;18.156;2023-02-15T12:16:48;102409.02;;;5.99;70.12
76553;BME280;65395;53.168;18.156;2023-02-15T12:19:32;102404.05;;;6.03;69.94
76553;BME280;65395;53.168;18.156;2023-02-15T12:22:01;102404.81;;;6.09;69.82
76553;BME280;65395;53.168;18.156;2023-02-15T12:24:32;102403.00;;;6.13;69.92
76553;BME280;65395;53.168;18.156;2023-02-15T12:27:13;102403.80;;;6.17;69.71
76553;BME280;65395;53.168;18.156;2023-02-15T12:29:43;102398.16;;;6.20;70.02
76553;BME280;65395;53.168;18.156;2023-02-15T12:32:18;102395.28;;;6.23;69.79
76553;BME280;65395;53.168;18.156;2023-02-15T12:34:46;102392.51;;;6.21;69.60
76553;BME280;65395;53.168;18.156;2023-02-15T12:37:24;102384.98;;;6.20;69.78
76553;BME280;65395;53.168;18.156;2023-02-15T12:39:55;102381.91;;;6.18;69.74
76553;BME280;65395;53.168;18.156;2023-02-15T12:42:23;102381.48;;;6.16;69.79
76553;BME280;65395;53.168;18.156;2023-02-15T12:48:08;102379.43;;;6.19;69.92
76553;BME280;65395;53.168;18.156;2023-02-15T12:50:36;102374.14;;;6.16;69.32
76553;BME280;65395;53.168;18.156;2023-02-15T12:53:14;102366.89;;;6.11;69.76
76553;BME280;65395;53.168;18.156;2023-02-15T12:55:59;102362.23;;;6.13;69.50
76553;BME280;65395;53.168;18.156;2023-02-15T12:58:29;102360.17;;;6.16;69.29
76553;BME280;65395;53.168;18.156;2023-02-15T13:15:40;102345.67;;;6.67;68.68
76553;BME280;65395;53.168;18.156;2023-02-15T13:18:13;102335.61;;;6.62;68.37
76553;BME280;65395;53.168;18.156;2023-02-15T13:20:43;102330.19;;;6.56;68.64
76553;BME280;65395;53.168;18.156;2023-02-15T13:23:25;102332.39;;;6.53;68.45
76553;BME280;65395;53.168;18.156;2023-02-15T13:25:56;102334.78;;;6.43;68.46
76553;BME280;65395;53.168;18.156;2023-02-15T13:28:32;102333.30;;;6.37;68.38
76553;BME280;65395;53.168;18.156;2023-02-15T13:31:03;102330.14;;;6.27;68.37
76553;BME280;65395;53.168;18.156;2023-02-15T13:33:33;102329.48;;;6.19;68.49
76553;BME280;65395;53.168;18.156;2023-02-15T13:36:09;102325.20;;;6.11;68.61
76553;BME280;65395;53.168;18.156;2023-02-15T13:39:09;102325.98;;;6.08;68.61
76553;BME280;65395;53.168;18.156;2023-02-15T13:41:49;102323.60;;;6.00;68.63
76553;BME280;65395;53.168;18.156;2023-02-15T13:44:41;102318.95;;;5.93;68.91
76553;BME280;65395;53.168;18.156;2023-02-15T13:47:27;102323.21;;;5.87;68.82
76553;BME280;65395;53.168;18.156;2023-02-15T13:55:49;102318.04;;;5.89;69.30
76553;BME280;65395;53.168;18.156;2023-02-15T13:58:33;102312.67;;;5.93;69.03
76553;BME280;65395;53.168;18.156;2023-02-15T14:01:10;102309.77;;;5.92;69.13
76553;BME280;65395;53.168;18.156;2023-02-15T14:04:03;102306.05;;;5.89;68.88
76553;BME280;65395;53.168;18.156;2023-02-15T14:06:50;102302.09;;;5.84;69.12
76553;BME280;65395;53.168;18.156;2023-02-15T14:12:25;102295.69;;;5.78;69.34
76553;BME280;65395;53.168;18.156;2023-02-15T14:17:53;102287.63;;;5.77;69.52
76553;BME280;65395;53.168;18.156;2023-02-15T14:20:35;102285.50;;;5.76;69.71
76553;BME280;65395;53.168;18.156;2023-02-15T14:23:17;102284.23;;;5.74;69.68
76553;BME280;65395;53.168;18.156;2023-02-15T14:29:02;102290.27;;;5.68;69.78
76553;BME280;65395;53.168;18.156;2023-02-15T14:31:38;102288.27;;;5.66;69.78
76553;BME280;65395;53.168;18.156;2023-02-15T14:34:37;102291.15;;;5.64;69.87
76553;BME280;65395;53.168;18.156;2023-02-15T14:37:04;102289.42;;;5.63;69.83
76553;BME280;65395;53.168;18.156;2023-02-15T14:42:30;102279.23;;;5.57;69.93
76553;BME280;65395;53.168;18.156;2023-02-15T14:47:49;102280.93;;;5.45;70.00
76553;BME280;65395;53.168;18.156;2023-02-15T14:56:06;102268.91;;;5.24;70.25